• Join FlightAware (Why Join?)
  • Login
  • US Flag 
09:05PM EDT


 

Airport Tracker/Info


-or-


 

Live Flight TrackerFlight Track Log ✈ SWA3247 ✈ 02-Jul-2013 ✈ KLAS - KALB

Flight Track Log - Related Links

Times and Time Zones

All times are in EDT time to prevent confusion due to time zone crossing. See the SWA3247 flight status page for this flight to view local times or setup timezone preferences in your user account.

Time Position Orientation Groundspeed Altitude Reporting Facility
EDT Latitude Longitude Course Direction KTS MPH feet Rate Location/Type
09:07PM 36.0772 -115.1731 271° West 181 208 3,000  Level Los Angeles Center
09:07PM 36.0781 -115.2233 271° West 190 219 4,300 1,620 Climbing Los Angeles Center
09:08PM 36.1250 -115.2889 312° West 257 296 6,200 2,100 Climbing Los Angeles Center
09:10PM 36.1822 -115.2278 41° Northeast 291 335 8,700 2,580 Climbing Los Angeles Center
09:10PM 36.1975 -115.1708 72° East 298 343 10,300 2,280 Climbing Los Angeles Center
09:12PM 36.1978 -115.0075 90° East 343 395 13,500 2,280 Climbing Los Angeles Center
09:13PM 36.1992 -114.8908 89° East 342 394 16,100 2,580 Climbing Los Angeles Center
09:14PM 36.1992 -114.7733 90° East 343 395 18,800 2,100 Climbing Los Angeles Center
09:15PM 36.1986 -114.6483 90° East 360 414 20,500 1,980 Climbing Los Angeles Center
09:16PM 36.1956 -114.4875 91° East 386 444 22,900 2,040 Climbing Los Angeles Center
09:17PM 36.1944 -114.3497 91° East 399 459 24,800 1,620 Climbing Los Angeles Center
09:18PM 36.1944 -114.2081 90° East 410 472 26,300 1,440 Climbing Los Angeles Center
09:19PM 36.2147 -114.0628 80° East 425 489 27,800 1,440 Climbing Los Angeles Center
09:20PM 36.2328 -113.9142 81° East 434 499 29,300 1,560 Climbing Los Angeles Center
09:21PM 36.2503 -113.7642 82° East 439 505 31,000 1,560 Climbing Los Angeles Center
09:22PM 36.2669 -113.6153 82° East 438 504 32,500 1,500 Climbing Los Angeles Center
09:23PM 36.2997 -113.4417 77° East 436 502 34,100 1,200 Climbing Los Angeles Center
09:24PM 36.3486 -113.3031 66° East 438 504 35,100 960 Climbing Los Angeles Center
09:25PM 36.3981 -113.1581 67° East 443 510 36,100 900 Climbing Los Angeles Center
09:26PM 36.4478 -113.0172 66° East 446 513 37,000 420 Climbing Los Angeles Center
09:27PM 36.4972 -112.8753 67° East 449 517 37,000  Level Los Angeles Center
09:28PM 36.5461 -112.7350 67° East 446 513 37,000  Level Los Angeles Center
09:29PM 36.6053 -112.5658 66° East 447 514 37,000  Level Los Angeles Center
09:30PM 36.6533 -112.4222 67° East 450 518 37,000  Level Los Angeles Center
09:31PM 36.7119 -112.2525 67° East 448 516 37,000  Level Los Angeles Center
09:32PM 36.7603 -112.1119 67° East 446 513 37,000  Level Los Angeles Center
09:34PM 36.8089 -111.9733 66° East 440 506 37,000  Level Los Angeles Center
09:35PM 36.8653 -111.8047 67° East 440 506 37,000  Level Los Angeles Center
09:35PM 36.8939 -111.7197 67° East 444 511 37,000  Level Denver Center
09:36PM 36.9519 -111.5503 67° East 443 510 37,000  Level Denver Center
09:38PM 37.0183 -111.3536 67° East 442 509 37,000  Level Denver Center
09:39PM 37.0653 -111.2133 67° East 440 506 37,000  Level Denver Center
09:40PM 37.1106 -111.0744 68° East 436 502 37,000  Level Denver Center
09:41PM 37.1544 -110.9369 68° East 430 495 37,000  Level Denver Center
09:42PM 37.1969 -110.8008 69° East 425 489 37,000  Level Denver Center
09:43PM 37.2411 -110.6633 68° East 426 490 37,000  Level Denver Center
09:44PM 37.2864 -110.5247 68° East 430 495 37,000  Level Denver Center
09:45PM 37.3389 -110.3600 68° East 427 491 37,000  Level Denver Center
09:46PM 37.3833 -110.2214 68° East 428 493 37,000  Level Denver Center
09:47PM 37.4269 -110.0842 68° East 423 487 37,000  Level Denver Center
09:48PM 37.4694 -109.9528 68° East 422 486 37,000  Level Denver Center
09:49PM 37.5175 -109.7969 69° East 424 488 37,000  Level Denver Center
09:50PM 37.5589 -109.6650 68° East 423 487 37,000  Level Denver Center
09:51PM 37.6067 -109.5128 68° East 419 482 37,000  Level Denver Center
09:52PM 37.6464 -109.3822 69° East 416 479 37,000  Level Denver Center
09:53PM 37.6933 -109.2306 69° East 414 476 37,000  Level Denver Center
09:54PM 37.7331 -109.1025 69° East 410 472 37,000  Level Denver Center
09:55PM 37.7722 -108.9747 69° East 408 470 37,000  Level Denver Center
09:56PM 37.8175 -108.8269 69° East 406 467 37,000  Level Denver Center
09:57PM 37.8553 -108.6992 69° East 404 465 37,000  Level Denver Center
09:58PM 37.9019 -108.5500 68° East 407 468 37,000  Level Denver Center
09:59PM 37.9394 -108.4206 70° East 408 470 37,000  Level Denver Center
10:00PM 37.9839 -108.2703 69° East 408 470 37,000  Level Denver Center
10:01PM 38.0219 -108.1439 69° East 405 466 37,000  Level Denver Center
10:02PM 38.0594 -108.0147 70° East 404 465 37,000  Level Denver Center
10:03PM 38.1006 -107.8747 69° East 402 463 37,000  Level Denver Center
10:04PM 38.1444 -107.7269 69° East 400 460 37,000  Level Denver Center
10:05PM 38.1817 -107.5981 70° East 405 466 37,000  Level Denver Center
10:07PM 38.2194 -107.4692 70° East 407 468 37,000  Level Denver Center
10:08PM 38.2622 -107.3186 70° East 406 467 37,000  Level Denver Center
10:09PM 38.3031 -107.1783 70° East 409 471 37,000  Level Denver Center
10:10PM 38.3497 -107.0136 70° East 419 482 37,000  Level Denver Center
10:11PM 38.3883 -106.8750 70° East 417 480 37,000  Level Denver Center
10:12PM 38.4353 -106.7097 70° East 414 476 37,000  Level Denver Center
10:13PM 38.4744 -106.5714 70° East 414 476 37,000  Level Denver Center
10:14PM 38.5197 -106.4056 71° East 415 478 37,000  Level Denver Center
10:15PM 38.5592 -106.2647 70° East 420 483 37,000  Level Denver Center
10:16PM 38.5994 -106.1183 71° East 422 486 37,000  Level Denver Center
10:17PM 38.6375 -105.9781 71° East 421 484 37,000  Level Denver Center
10:18PM 38.6764 -105.8367 71° East 423 487 37,000  Level Denver Center
10:19PM 38.7150 -105.6969 70° East 419 482 37,000  Level Denver Center
10:20PM 38.7522 -105.5575 71° East 417 480 37,000  Level Denver Center
10:22PM 38.8039 -105.3625 71° East 415 478 37,000  Level Denver Center
10:23PM 38.8333 -105.2531 71° East 412 474 37,000  Level Denver Center
10:24PM 38.8772 -105.0844 71° East 415 478 37,000  Level Denver Center
10:25PM 38.9136 -104.9447 71° East 415 478 37,000  Level Denver Center
10:26PM 38.9506 -104.8056 71° East 415 478 37,000  Level Denver Center
10:27PM 38.9878 -104.6642 71° East 419 482 37,000  Level Denver Center
10:28PM 39.0247 -104.5194 72° East 427 491 37,000  Level Denver Center
10:29PM 39.0689 -104.3444 72° East 432 497 37,000  Level Denver Center
10:30PM 39.1061 -104.1981 72° East 433 498 37,000  Level Denver Center
10:31PM 39.1431 -104.0525 72° East 431 496 37,000  Level Denver Center
10:32PM 39.1797 -103.9083 72° East 427 491 37,000  Level Denver Center
10:33PM 39.2161 -103.7628 72° East 429 494 37,000  Level Denver Center
10:34PM 39.2528 -103.6189 72° East 426 490 37,000  Level Denver Center
10:35PM 39.2956 -103.4439 72° East 428 493 37,000  Level Denver Center
10:36PM 39.3317 -103.2972 72° East 429 494 37,000  Level Denver Center
10:37PM 39.3661 -103.1525 73° East 425 489 37,000  Level Denver Center
10:38PM 39.4022 -103.0097 72° East 421 484 37,000  Level Denver Center
10:39PM 39.4369 -102.8647 73° East 423 487 37,000  Level Denver Center
10:40PM 39.4711 -102.7197 73° East 423 487 37,000  Level Denver Center
10:41PM 39.5064 -102.5736 73° East 424 488 37,000  Level Denver Center
10:42PM 39.5406 -102.4283 73° East 423 487 37,000  Level Denver Center
10:43PM 39.5769 -102.2697 73° East 421 484 37,000  Level Denver Center
10:44PM 39.6150 -102.1094 73° East 418 481 37,000  Level Denver Center
10:45PM 39.6472 -101.9725 73° East 416 479 37,000  Level Denver Center
10:46PM 39.6778 -101.8358 74° East 413 475 37,000  Level Denver Center
10:47PM 39.7156 -101.6767 73° East 414 476 37,000  Level Denver Center
10:48PM 39.7461 -101.5406 74° East 413 475 37,000  Level Denver Center
10:49PM 39.7819 -101.3803 74° East 414 476 37,000  Level Denver Center
10:50PM 39.8131 -101.2422 74° East 417 480 37,000  Level Denver Center
10:51PM 39.8481 -101.0806 74° East 417 480 37,000  Level Denver Center
10:52PM 39.8833 -100.9189 74° East 418 481 37,000  Level Denver Center
10:53PM 39.9189 -100.7583 74° East 416 479 37,000  Level Denver Center
10:55PM 39.9489 -100.6208 74° East 415 478 37,000  Level Denver Center
10:56PM 39.9836 -100.4550 75° East 424 488 37,000  Level Denver Center
10:57PM 40.0147 -100.3142 74° East 424 488 37,000  Level Denver Center
10:58PM 40.0439 -100.1736 75° East 425 489 37,000  Level Denver Center
10:59PM 40.0792 -100.0056 75° East 427 491 37,000  Level Denver Center
11:00PM 40.1069 -99.8758 74° East 425 489 37,000  Level Denver Center
11:01PM 40.1439 -99.6956 75° East 429 494 37,000  Level Denver Center
11:02PM 40.1753 -99.5456 75° East 429 494 37,000  Level Denver Center
11:03PM 40.2056 -99.3933 75° East 433 498 37,000  Level Denver Center
11:04PM 40.2361 -99.2414 75° East 433 498 37,000  Level Denver Center
11:05PM 40.2672 -99.0897 75° East 434 499 37,000  Level Denver Center
11:06PM 40.2981 -98.9367 75° East 436 502 37,000  Level Denver Center
11:07PM 40.3281 -98.7831 76° East 437 503 37,000  Level Denver Center
11:08PM 40.3581 -98.6289 76° East 438 504 37,000  Level Denver Center
11:09PM 40.3947 -98.4408 76° East 446 513 37,000  Level Denver Center
11:10PM 40.4314 -98.2536 76° East 443 510 37,000  Level Minneapolis Center
11:11PM 40.4614 -98.0986 76° East 443 510 37,000  Level Minneapolis Center
11:12PM 40.4894 -97.9425 77° East 442 509 37,000  Level Minneapolis Center
11:13PM 40.5197 -97.7878 76° East 441 507 37,000  Level Minneapolis Center
11:14PM 40.5497 -97.6303 76° East 443 510 37,000  Level Minneapolis Center
11:15PM 40.5775 -97.4725 77° East 444 511 37,000  Level Minneapolis Center
11:16PM 40.6067 -97.3100 77° East 449 517 37,000  Level Minneapolis Center
11:17PM 40.6378 -97.1483 76° East 454 522 37,000  Level Minneapolis Center
11:18PM 40.6667 -96.9864 77° East 456 525 37,000  Level Minneapolis Center
11:19PM 40.6958 -96.8236 77° East 458 527 37,000  Level Minneapolis Center
11:20PM 40.7244 -96.6603 77° East 460 529 37,000  Level Minneapolis Center
11:21PM 40.7528 -96.4983 77° East 457 526 37,000  Level Minneapolis Center
11:22PM 40.7875 -96.3061 77° East 454 522 37,000  Level Minneapolis Center
11:23PM 40.8142 -96.1469 77° East 451 519 37,000  Level Minneapolis Center
11:24PM 40.8414 -95.9881 77° East 449 517 37,000  Level Minneapolis Center
11:25PM 40.8686 -95.8286 77° East 449 517 37,000 540 Level Minneapolis Center
11:26PM 40.8958 -95.6672 77° East 451 519 38,200 960 Climbing Minneapolis Center
11:27PM 40.9225 -95.5081 77° East 450 518 39,000 360 Climbing Minneapolis Center
11:28PM 40.9486 -95.3486 78° East 447 514 39,000  Level Minneapolis Center
11:29PM 40.9758 -95.1886 77° East 448 516 39,000  Level Minneapolis Center
11:30PM 41.0014 -95.0272 78° East 449 517 39,000  Level Minneapolis Center
11:31PM 41.0283 -94.8650 78° East 450 518 39,000  Level Minneapolis Center
11:32PM 41.0592 -94.6703 78° East 451 519 39,000  Level Minneapolis Center
11:33PM 41.0850 -94.5078 78° East 453 521 39,000  Level Minneapolis Center
11:34PM 41.1100 -94.3442 78° East 455 524 39,000  Level Minneapolis Center
11:35PM 41.1344 -94.1828 79° East 454 522 39,000  Level Minneapolis Center
11:36PM 41.1583 -94.0219 79° East 450 518 39,000  Level Minneapolis Center
11:37PM 41.1833 -93.8594 78° East 452 520 39,000  Level Minneapolis Center
11:38PM 41.2072 -93.6989 79° East 449 517 39,000  Level Minneapolis Center
11:39PM 41.2317 -93.5369 79° East 450 518 39,000  Level Minneapolis Center
11:41PM 41.2564 -93.3750 78° East 450 518 39,000  Level Minneapolis Center
11:42PM 41.2794 -93.2156 79° East 445 512 39,000  Level Minneapolis Center
11:43PM 41.3022 -93.0544 79° East 445 512 39,000  Level Minneapolis Center
11:44PM 41.3256 -92.8919 79° East 448 516 39,000  Level Minneapolis Center
11:45PM 41.3536 -92.6956 79° East 452 520 39,000  Level Minneapolis Center
11:46PM 41.3719 -92.5650 79° East 452 520 39,000  Level Minneapolis Center
11:47PM 41.3989 -92.3672 80° East 454 522 39,000  Level Minneapolis Center
11:48PM 41.4206 -92.2025 80° East 455 524 39,000  Level Minneapolis Center
11:49PM 41.4428 -92.0394 80° East 453 521 39,000  Level Minneapolis Center
11:50PM 41.4642 -91.8769 80° East 451 519 39,000  Level Minneapolis Center
11:51PM 41.4872 -91.7025 80° East 446 513 39,000  Level Minneapolis Center
11:52PM 41.5150 -91.4892 80° East 452 520 39,000  Level Chicago Center
11:53PM 41.5358 -91.3239 80° East 457 526 39,000  Level Chicago Center
11:54PM 41.5578 -91.1586 80° East 459 528 39,000  Level Chicago Center
11:55PM 41.5781 -90.9903 81° East 464 534 39,000  Level Chicago Center
11:56PM 41.6022 -90.7911 81° East 462 532 39,000  Level Chicago Center
11:57PM 41.6233 -90.6242 80° East 463 533 39,000  Level Chicago Center
11:58PM 41.6425 -90.4628 81° East 464 534 39,000  Level Chicago Center
11:59PM 41.6622 -90.2928 81° East 463 533 39,000  Level Chicago Center
12:00AM 41.6822 -90.1239 81° East 460 529 39,000  Level Chicago Center
12:01AM 41.7022 -89.9539 81° East 462 532 39,000  Level Chicago Center
12:02AM 41.7222 -89.7825 81° East 463 533 39,000  Level Chicago Center
12:03AM 41.7406 -89.6125 82° East 463 533 39,000  Level Chicago Center
12:04AM 41.7575 -89.4461 82° East 455 524 39,000  Level Chicago Center
12:05AM 41.7750 -89.2758 82° East 460 529 39,000  Level Chicago Center
12:06AM 41.7942 -89.1044 81° East 461 531 39,000  Level Chicago Center
12:07AM 41.8131 -88.9322 82° East 465 535 39,000  Level Chicago Center
12:08AM 41.8311 -88.7600 82° East 468 539 39,000  Level Chicago Center
12:09AM 41.8486 -88.5869 82° East 469 540 39,000  Level Chicago Center
12:10AM 41.8719 -88.3744 82° East 475 547 39,000  Level Chicago Center
12:11AM 41.8892 -88.1978 82° East 477 549 39,000  Level Chicago Center
12:12AM 41.9056 -88.0197 83° East 478 550 39,000  Level Chicago Center
12:13AM 41.9231 -87.8408 82° East 482 555 39,000  Level Chicago Center
12:14AM 41.9400 -87.6617 83° East 483 556 39,000  Level Chicago Center
12:15AM 41.9564 -87.4836 83° East 481 554 39,000  Level Chicago Center
12:16AM 41.9725 -87.3031 83° East 486 559 39,000  Level Chicago Center
12:17AM 41.9889 -87.1250 83° East 482 555 39,000  Level Chicago Center
12:18AM 42.0050 -86.9447 83° East 486 559 39,000  Level Chicago Center
12:19AM 42.0197 -86.7644 84° East 486 559 39,000  Level Chicago Center
12:20AM 42.0347 -86.6056 83° East 485 558 39,000  Level Chicago Center
12:21AM 42.0494 -86.4231 84° East 489 563 39,000  Level Chicago Center
12:22AM 42.0633 -86.2414 84° East 489 563 39,000  Level Chicago Center
12:23AM 42.0789 -86.0567 83° East 494 568 39,000  Level Chicago Center
12:24AM 42.0958 -85.8478 84° East 501 577 39,000  Level Chicago Center
12:25AM 42.1089 -85.6625 85° East 503 579 39,000  Level Chicago Center
12:26AM 42.1233 -85.4725 84° East 512 589 39,000  Level Chicago Center
12:27AM 42.1375 -85.2839 84° East 511 588 39,000  Level Chicago Center
12:28AM 42.1519 -85.0903 84° East 521 600 39,000  Level Chicago Center
12:29AM 42.1656 -84.9025 84° East 511 588 39,000  Level Chicago Center
12:30AM 42.1792 -84.7136 84° East 509 586 39,000  Level Chicago Center
12:31AM 42.1906 -84.5278 85° East 502 578 39,000  Level Chicago Center
12:32AM 42.2033 -84.3400 85° East 504 580 39,000  Level Chicago Center
12:33AM 42.2153 -84.1519 85° East 507 583 39,000  Level Chicago Center
12:34AM 42.2278 -83.9636 85° East 506 582 39,000  Level Chicago Center
12:36AM 42.2378 -83.7272 87° East 495 570 39,000  Level Cleveland Center
12:37AM 42.2517 -83.5175 85° East 500 575 39,000  Level Cleveland Center
12:38AM 42.2692 -83.3247 83° East 505 581 39,000  Level Cleveland Center
12:39AM 42.2861 -83.1317 83° East 514 592 39,000  Level Cleveland Center
12:40AM 42.3025 -82.9469 83° East 514 592 39,000  Level Cleveland Center
12:41AM 42.3208 -82.7567 83° East 508 585 39,000  Level Cleveland Center
12:42AM 42.3367 -82.5719 83° East 508 585 39,000  Level Cleveland Center
12:43AM 42.3525 -82.3786 84° East 502 578 39,000  Level Cleveland Center
12:44AM 42.3678 -82.1906 84° East 502 578 39,000  Level Cleveland Center
12:45AM 42.3844 -82.0225 82° East 497 572 39,000  Level Cleveland Center
12:46AM 42.4014 -81.8175 84° East 505 581 39,000  Level Cleveland Center
12:47AM 42.4139 -81.6236 85° East 500 575 39,000  Level Cleveland Center
12:48AM 42.4300 -81.4328 83° East 500 575 39,000  Level Cleveland Center
12:49AM 42.4436 -81.2444 84° East 506 582 39,000  Level Cleveland Center
12:50AM 42.4572 -81.0558 84° East 506 582 39,000  Level Cleveland Center
12:51AM 42.4703 -80.8675 85° East 506 582 39,000  Level Cleveland Center
12:52AM 42.4831 -80.6817 85° East 499 574 39,000  Level Cleveland Center
12:53AM 42.4978 -80.4931 84° East 499 574 39,000  Level Cleveland Center
12:54AM 42.5058 -80.3242 86° East 499 574 39,000  Level Cleveland Center
12:55AM 42.5197 -80.1353 84° East 494 568 39,000  Level Cleveland Center
12:56AM 42.5356 -79.9492 83° East 499 574 39,000  Level Cleveland Center
12:57AM 42.5469 -79.7631 85° East 499 574 39,000  Level Cleveland Center
12:58AM 42.5558 -79.5742 86° East 499 574 39,000  Level Cleveland Center
12:59AM 42.5667 -79.3908 85° East 499 574 39,000  Level Cleveland Center
01:00AM 42.5792 -79.2017 85° East 499 574 39,000  Level Cleveland Center
01:01AM 42.5892 -79.0153 86° East 499 574 39,000  Level Cleveland Center
01:02AM 42.5969 -78.8261 87° East 499 574 39,000  Level Cleveland Center
01:03AM 42.6064 -78.6367 86° East 499 574 39,000  Level Cleveland Center
01:04AM 42.6156 -78.4503 86° East 499 574 39,000  Level Cleveland Center
01:05AM 42.6244 -78.2608 86° East 504 580 39,000  Level Cleveland Center
01:06AM 42.6331 -78.0714 86° East 498 573 39,000  Level Cleveland Center
01:07AM 42.6414 -77.8875 86° East 498 573 39,000  Level Cleveland Center
01:08AM 42.6489 -77.6783 87° East 498 573 39,000  Level Cleveland Center
01:09AM 42.6564 -77.4917 87° East 498 573 39,000 -540 Level Cleveland Center
01:11AM 42.6747 -77.0781 86° East 494 568 37,300 -840 Descending Boston Center
01:12AM 42.6803 -76.8889 88° East 499 574 36,300 -960 Descending Boston Center
01:13AM 42.6875 -76.6975 87° East 499 574 35,400 -900 Descending Boston Center
01:14AM 42.6933 -76.5422 87° East 499 574 34,600 -960 Descending Boston Center
01:15AM 42.6992 -76.3139 88° East 499 574 33,500 -1,140 Descending Boston Center
01:16AM 42.7056 -76.1247 87° East 499 574 32,400 -1,440 Descending Boston Center
01:17AM 42.7114 -75.9331 88° East 493 567 30,700 -2,220 Descending Boston Center
01:18AM 42.7150 -75.7436 88° East 498 573 28,000 -2,700 Descending Boston Center
01:19AM 42.7181 -75.5603 89° East 487 560 25,400 -2,640 Descending Boston Center
01:20AM 42.7228 -75.3850 88° East 476 548 22,800 -2,580 Descending Boston Center
01:21AM 42.7272 -75.2128 88° East 465 535 20,300 -2,460 Descending Boston Center
01:22AM 42.7311 -75.0492 88° East 450 518 17,900 -2,400 Descending Boston Center
01:23AM 42.7325 -74.8881 89° East 430 495 15,600 -2,400 Descending Boston Center
01:24AM 42.7358 -74.7356 88° East 418 481 13,200 -2,340 Descending Boston Center
01:25AM 42.7386 -74.5886 88° East 394 453 11,000 -1,200 Descending Boston Center
01:26AM 42.7450 -74.4586 86° East 367 422 10,900 -840 Descending Boston Center
01:27AM 42.7700 -74.3464 73° East 317 365 9,400 -1,680 Descending Boston Center
01:28AM 42.7906 -74.2339 76° East 303 349 7,600 -2,160 Descending Boston Center
01:29AM 42.8111 -74.1269 75° East 292 336 5,100 -2,160 Descending Boston Center
01:30AM 42.8289 -74.0339 75° East 287 330 3,300 -1,200 Descending Boston Center
01:31AM 42.8489 -73.9411 74° East 275 316 2,800 -300 Descending Boston Center
01:32AM 42.8650 -73.8394 78° East 248 285 2,700 -540 Descending Boston Center
01:33AM 42.8319 -73.8103 147° Southeast 195 224 1,800 -900 Descending Boston Center
01:34AM 42.7797 -73.8092 179° South 114 131 700 -900 Descending Boston Center